createdAt,value
2018-06-11T00:00:02.982Z,5.97
2018-06-11T00:02:29.998Z,6.87
2018-06-11T00:04:56.449Z,7.30
2018-06-11T00:07:22.962Z,8.70
2018-06-11T00:09:49.443Z,8.25
2018-06-11T00:12:16.686Z,9.40
2018-06-11T00:14:43.130Z,6.40
2018-06-11T00:17:09.624Z,6.60
2018-06-11T00:19:36.147Z,6.53
2018-06-11T00:22:03.277Z,7.87
2018-06-11T00:24:29.743Z,7.33
2018-06-11T00:26:56.225Z,7.80
2018-06-11T00:29:22.669Z,6.67
2018-06-11T00:31:49.166Z,8.27
2018-06-11T00:34:15.605Z,6.58
2018-06-11T00:36:42.111Z,7.60
2018-06-11T00:39:08.731Z,7.53
2018-06-11T00:41:35.221Z,7.90
2018-06-11T00:44:01.727Z,11.30
2018-06-11T00:46:28.265Z,8.05
2018-06-11T00:48:54.727Z,6.23
2018-06-11T00:51:21.224Z,7.90
2018-06-11T00:53:47.739Z,9.95
2018-06-11T00:56:14.213Z,7.57
2018-06-11T00:58:40.761Z,5.90
2018-06-11T01:01:07.221Z,8.80
2018-06-11T01:03:33.665Z,5.50
2018-06-11T01:06:00.197Z,8.08
2018-06-11T01:08:26.687Z,7.43
2018-06-11T01:10:53.209Z,9.27
2018-06-11T01:13:19.711Z,8.43
2018-06-11T01:15:46.219Z,6.42
2018-06-11T01:18:12.707Z,6.65
2018-06-11T01:20:39.170Z,9.90
2018-06-11T01:23:05.623Z,7.67
2018-06-11T01:25:32.127Z,6.13
2018-06-11T01:27:58.605Z,7.30
2018-06-11T01:30:25.039Z,7.07
2018-06-11T01:32:51.989Z,5.80
2018-06-11T01:35:18.565Z,8.00
2018-06-11T01:37:45.609Z,6.20
2018-06-11T01:40:12.751Z,6.73
2018-06-11T01:42:39.507Z,6.00
2018-06-11T01:45:06.015Z,6.43
2018-06-11T01:47:32.502Z,8.10
2018-06-11T01:50:05.001Z,7.78
2018-06-11T01:52:31.475Z,9.17
2018-06-11T01:54:57.959Z,8.70
2018-06-11T01:57:24.427Z,7.03
2018-06-11T01:59:50.943Z,7.00
2018-06-11T02:02:17.433Z,6.60
2018-06-11T02:04:43.935Z,6.97
2018-06-11T02:07:10.442Z,6.27
2018-06-11T02:09:36.915Z,8.15
2018-06-11T02:12:03.401Z,6.70
2018-06-11T02:14:29.919Z,6.50
2018-06-11T02:16:56.431Z,6.30
2018-06-11T02:19:22.906Z,9.63
2018-06-11T02:21:49.529Z,7.37
2018-06-11T02:24:15.967Z,6.33
2018-06-11T02:26:42.502Z,9.27
2018-06-11T02:29:09.015Z,8.07
2018-06-11T02:31:35.571Z,8.80
2018-06-11T02:34:02.366Z,8.10
2018-06-11T02:36:29.335Z,8.00
2018-06-11T02:38:55.859Z,8.73
2018-06-11T02:41:22.335Z,21.67
2018-06-11T02:43:48.854Z,7.95
2018-06-11T02:46:15.364Z,9.37
2018-06-11T02:48:41.837Z,7.13
2018-06-11T02:51:08.305Z,7.83
2018-06-11T02:53:34.787Z,7.90
2018-06-11T02:56:01.235Z,6.20
2018-06-11T02:58:27.722Z,8.70
2018-06-11T03:00:54.221Z,7.20
2018-06-11T03:03:20.711Z,9.37
2018-06-11T03:05:47.206Z,6.80
2018-06-11T03:08:13.680Z,7.00
2018-06-11T03:10:40.223Z,7.27
2018-06-11T03:13:06.715Z,6.53
2018-06-11T03:15:33.182Z,8.13
2018-06-11T03:17:59.759Z,7.50
2018-06-11T03:20:26.235Z,5.70
2018-06-11T03:22:52.790Z,9.33
2018-06-11T03:25:19.336Z,7.35
2018-06-11T03:27:45.828Z,8.03
2018-06-11T03:30:12.356Z,7.67
2018-06-11T03:32:39.032Z,9.13
2018-06-11T03:35:05.522Z,8.13
2018-06-11T03:37:32.030Z,7.90
2018-06-11T03:39:58.514Z,7.08
2018-06-11T03:42:24.994Z,8.20
2018-06-11T03:44:52.164Z,7.20
2018-06-11T03:47:18.668Z,6.78
2018-06-11T03:50:04.302Z,7.12
2018-06-11T03:52:30.758Z,7.10
2018-06-11T03:54:57.234Z,6.90
2018-06-11T03:57:23.756Z,8.10
2018-06-11T03:59:50.194Z,8.97
2018-06-11T04:02:17.238Z,6.90
2018-06-11T04:04:43.688Z,10.93
2018-06-11T04:07:10.210Z,7.47
2018-06-11T04:09:36.660Z,7.17
2018-06-11T04:12:03.122Z,7.10
2018-06-11T04:14:29.621Z,7.55
2018-06-11T04:16:56.110Z,8.93
2018-06-11T04:19:22.600Z,8.67
2018-06-11T04:21:49.070Z,7.07
2018-06-11T04:24:15.549Z,8.58
2018-06-11T04:26:41.984Z,7.30
2018-06-11T04:29:08.456Z,10.53
2018-06-11T04:31:34.934Z,6.20
2018-06-11T04:34:01.451Z,7.83
2018-06-11T04:36:27.892Z,6.23
2018-06-11T04:38:54.351Z,7.20
2018-06-11T04:41:20.828Z,7.10
2018-06-11T04:43:47.297Z,6.83
2018-06-11T04:46:13.785Z,9.10
2018-06-11T04:48:40.282Z,6.70
2018-06-11T04:51:06.729Z,11.57
2018-06-11T04:53:33.205Z,10.30
2018-06-11T04:55:59.693Z,8.43
2018-06-11T04:58:26.133Z,7.10
2018-06-11T05:00:52.571Z,6.92
2018-06-11T05:03:19.057Z,9.10
2018-06-11T05:05:45.524Z,7.90
2018-06-11T05:08:12.004Z,10.03
2018-06-11T05:10:38.429Z,9.48
2018-06-11T05:13:04.884Z,7.23
2018-06-11T05:15:31.338Z,7.63
2018-06-11T05:17:57.820Z,8.28
2018-06-11T05:20:24.301Z,10.13
2018-06-11T05:22:50.757Z,7.17
2018-06-11T05:25:17.240Z,10.97
2018-06-11T05:27:43.691Z,13.15
2018-06-11T05:30:10.183Z,13.43
2018-06-11T05:32:36.654Z,7.43
2018-06-11T05:35:03.221Z,9.27
2018-06-11T05:37:29.693Z,13.10
2018-06-11T05:39:56.172Z,12.85
2018-06-11T05:42:23.513Z,9.17
2018-06-11T05:44:49.975Z,10.37
2018-06-11T05:47:16.455Z,10.32
2018-06-11T05:49:42.974Z,10.33
2018-06-11T05:52:09.473Z,8.27
2018-06-11T05:54:35.959Z,9.33
2018-06-11T05:57:02.447Z,8.50
2018-06-11T05:59:28.927Z,9.48
2018-06-11T06:01:55.395Z,9.40
2018-06-11T06:04:21.869Z,10.43
2018-06-11T06:06:48.349Z,15.10
2018-06-11T06:09:14.837Z,8.40
2018-06-11T06:11:41.336Z,8.90
2018-06-11T06:14:07.835Z,7.57
2018-06-11T06:16:34.254Z,16.55
2018-06-11T06:19:00.728Z,11.03
2018-06-11T06:21:27.218Z,13.87
2018-06-11T06:23:53.664Z,12.03
2018-06-11T06:26:20.140Z,11.80
2018-06-11T06:28:46.639Z,13.88
2018-06-11T06:31:13.099Z,11.00
2018-06-11T06:33:39.605Z,11.50
2018-06-11T06:36:06.179Z,9.00
2018-06-11T06:38:32.667Z,12.25
2018-06-11T06:40:59.121Z,8.83
2018-06-11T06:43:25.593Z,10.07
2018-06-11T06:45:52.152Z,8.78
2018-06-11T06:48:18.603Z,11.70
2018-06-11T06:50:45.214Z,12.53
2018-06-11T06:53:11.717Z,9.93
2018-06-11T06:55:38.162Z,14.77
2018-06-11T06:58:04.631Z,8.43
2018-06-11T07:00:31.073Z,9.43
2018-06-11T07:02:57.530Z,11.23
2018-06-11T07:05:24.023Z,13.37
2018-06-11T07:07:50.529Z,10.03
2018-06-11T07:10:17.113Z,12.20
2018-06-11T07:12:44.619Z,15.03
2018-06-11T07:15:11.080Z,10.20
2018-06-11T07:17:37.541Z,11.50
2018-06-11T07:20:04.014Z,11.97
2018-06-11T07:22:30.493Z,10.93
2018-06-11T07:24:56.953Z,11.20
2018-06-11T07:27:23.451Z,10.57
2018-06-11T07:29:49.975Z,11.10
2018-06-11T07:32:16.490Z,12.13
2018-06-11T07:34:43.003Z,16.57
2018-06-11T07:37:09.577Z,13.35
2018-06-11T07:39:36.096Z,9.50
2018-06-11T07:42:03.102Z,10.67
2018-06-11T07:44:29.619Z,11.53
2018-06-11T07:46:56.128Z,9.53
2018-06-11T07:49:23.200Z,12.83
2018-06-11T07:51:49.697Z,12.65
2018-06-11T07:54:16.178Z,11.13
2018-06-11T07:56:42.650Z,10.37
2018-06-11T07:59:09.103Z,10.57
2018-06-11T08:01:35.607Z,11.77
2018-06-11T08:04:02.129Z,12.23
2018-06-11T08:06:28.599Z,10.07
2018-06-11T08:08:55.195Z,9.70
2018-06-11T08:11:22.039Z,9.77
2018-06-11T08:13:48.537Z,8.30
2018-06-11T08:16:15.063Z,11.53
2018-06-11T08:18:41.569Z,10.18
2018-06-11T08:21:08.086Z,9.97
2018-06-11T08:23:34.556Z,11.33
2018-06-11T08:26:01.034Z,9.70
2018-06-11T08:28:27.530Z,10.70
2018-06-11T08:30:54.000Z,10.35
2018-06-11T08:33:20.494Z,10.33
2018-06-11T08:35:46.984Z,8.53
2018-06-11T08:38:13.475Z,13.88
2018-06-11T08:40:39.960Z,18.77
2018-06-11T08:43:06.494Z,13.63
2018-06-11T08:45:32.932Z,17.20
2018-06-11T08:47:59.398Z,13.37
2018-06-11T08:50:25.848Z,10.43
2018-06-11T08:52:52.326Z,8.33
2018-06-11T08:55:18.774Z,11.53
2018-06-11T08:57:45.245Z,10.43
2018-06-11T09:00:12.616Z,10.90
2018-06-11T09:02:39.140Z,8.00
2018-06-11T09:05:05.599Z,11.77
2018-06-11T09:07:32.074Z,10.03
2018-06-11T09:09:58.560Z,9.10
2018-06-11T09:12:25.774Z,6.83
2018-06-11T09:14:52.244Z,7.30
2018-06-11T09:17:18.729Z,7.80
2018-06-11T09:19:45.240Z,8.43
2018-06-11T09:22:12.760Z,8.00
2018-06-11T09:24:39.258Z,18.70
2018-06-11T09:27:05.796Z,8.65
2018-06-11T09:29:32.278Z,7.35
2018-06-11T09:31:58.718Z,6.90
2018-06-11T09:34:25.860Z,7.13
2018-06-11T09:36:52.397Z,8.10
2018-06-11T09:39:18.910Z,9.37
2018-06-11T09:41:45.378Z,7.70
2018-06-11T09:44:11.897Z,8.03
2018-06-11T09:46:38.387Z,11.35
2018-06-11T09:49:04.895Z,6.53
2018-06-11T09:51:31.391Z,8.50
2018-06-11T09:53:57.877Z,9.85
2018-06-11T09:56:24.361Z,7.20
2018-06-11T09:58:50.884Z,7.50
2018-06-11T10:01:17.359Z,7.73
2018-06-11T10:03:43.872Z,13.53
2018-06-11T10:06:10.336Z,6.80
2018-06-11T10:08:36.809Z,8.33
2018-06-11T10:11:03.283Z,8.10
2018-06-11T10:13:29.833Z,8.23
2018-06-11T10:15:56.343Z,7.62
2018-06-11T10:18:25.472Z,6.97
2018-06-11T10:20:52.329Z,7.13
2018-06-11T10:23:18.853Z,7.13
2018-06-11T10:25:45.338Z,8.23
2018-06-11T10:28:11.821Z,6.63
2018-06-11T10:30:38.309Z,7.33
2018-06-11T10:33:04.776Z,7.03
2018-06-11T10:35:31.310Z,6.62
2018-06-11T10:37:57.765Z,9.83
2018-06-11T10:40:24.260Z,6.93
2018-06-11T10:42:50.729Z,9.50
2018-06-11T10:45:17.211Z,6.60
2018-06-11T10:47:43.732Z,8.18
2018-06-11T10:50:10.215Z,6.33
2018-06-11T10:52:36.704Z,8.17
2018-06-11T10:55:03.211Z,6.60
2018-06-11T10:57:29.691Z,7.60
2018-06-11T10:59:56.148Z,9.20
2018-06-11T11:02:23.014Z,7.03
2018-06-11T11:04:49.484Z,10.53
2018-06-11T11:07:15.965Z,7.60
2018-06-11T11:09:42.438Z,7.47
2018-06-11T11:12:09.465Z,6.63
2018-06-11T11:14:35.969Z,8.28
2018-06-11T11:17:02.435Z,6.62
2018-06-11T11:19:28.877Z,5.27
2018-06-11T11:21:55.341Z,6.53
2018-06-11T11:24:21.817Z,8.55
2018-06-11T11:26:48.341Z,5.15
2018-06-11T11:29:14.857Z,8.30
2018-06-11T11:31:41.321Z,5.50
2018-06-11T11:34:07.777Z,4.83
2018-06-11T11:36:34.241Z,7.08
2018-06-11T11:39:00.730Z,3.87
2018-06-11T11:41:27.231Z,7.57
2018-06-11T11:43:53.711Z,8.40
2018-06-11T11:46:20.233Z,6.20
2018-06-11T11:48:46.752Z,5.10
2018-06-11T11:51:13.256Z,4.93
2018-06-11T11:53:39.735Z,5.97
2018-06-11T11:56:06.235Z,4.60
2018-06-11T11:58:32.717Z,6.07
2018-06-11T12:00:59.212Z,9.03
2018-06-11T12:03:25.710Z,4.97
2018-06-11T12:05:52.227Z,5.13
2018-06-11T12:08:19.270Z,5.47
2018-06-11T12:10:45.774Z,5.13
2018-06-11T12:13:12.303Z,4.42
2018-06-11T12:15:38.737Z,7.08
2018-06-11T12:18:05.257Z,6.33
2018-06-11T12:20:31.755Z,4.80
2018-06-11T12:22:59.182Z,4.73
2018-06-11T12:25:25.682Z,5.03
2018-06-11T12:27:52.172Z,6.20
2018-06-11T12:30:18.644Z,5.50
2018-06-11T12:32:45.790Z,6.67
2018-06-11T12:35:12.326Z,7.13
2018-06-11T12:37:38.802Z,8.50
2018-06-11T12:40:05.312Z,8.57
2018-06-11T12:42:32.448Z,7.72
2018-06-11T12:44:58.920Z,12.43
2018-06-11T12:47:25.360Z,6.20
2018-06-11T12:49:51.813Z,7.78
2018-06-11T12:52:18.313Z,6.27
2018-06-11T12:54:44.816Z,9.53
2018-06-11T12:57:11.302Z,7.27
2018-06-11T12:59:37.886Z,5.20
2018-06-11T13:02:04.362Z,15.05
2018-06-11T13:04:30.882Z,6.33
2018-06-11T13:06:57.466Z,13.03
2018-06-11T13:09:24.002Z,8.53
2018-06-11T13:11:50.465Z,6.03
2018-06-11T13:14:16.955Z,9.23
2018-06-11T13:16:44.124Z,6.40
2018-06-11T13:19:10.608Z,8.55
2018-06-11T13:21:37.097Z,5.57
2018-06-11T13:24:03.584Z,6.57
2018-06-11T13:26:30.100Z,5.40
2018-06-11T13:28:56.558Z,4.92
2018-06-11T13:31:23.079Z,6.77
2018-06-11T13:33:50.244Z,9.93
2018-06-11T13:36:16.760Z,7.62
2018-06-11T13:38:43.273Z,6.08
2018-06-11T13:41:09.774Z,6.20
2018-06-11T13:43:36.249Z,7.63
2018-06-11T13:46:02.814Z,4.00
2018-06-11T13:48:29.288Z,7.70
2018-06-11T13:50:55.866Z,8.53
2018-06-11T13:53:22.385Z,8.00
2018-06-11T13:55:48.868Z,6.00
2018-06-11T13:58:15.408Z,3.77
2018-06-11T14:00:41.931Z,3.67
2018-06-11T14:03:08.413Z,5.97
2018-06-11T14:05:34.883Z,8.50
2018-06-11T14:08:01.372Z,5.70
2018-06-11T14:10:27.889Z,4.90
2018-06-11T14:12:54.404Z,4.23
2018-06-11T14:15:20.903Z,4.13
2018-06-11T14:17:47.353Z,5.20
2018-06-11T14:20:13.841Z,7.30
2018-06-11T14:22:40.599Z,7.10
2018-06-11T14:25:07.082Z,6.30
2018-06-11T14:27:33.567Z,5.50
2018-06-11T14:30:00.093Z,3.53
2018-06-11T14:32:26.989Z,3.87
2018-06-11T14:34:53.451Z,4.30
2018-06-11T14:37:19.925Z,6.30
2018-06-11T14:39:46.371Z,4.53
2018-06-11T14:42:12.859Z,3.80
2018-06-11T14:44:39.341Z,6.67
2018-06-11T14:47:05.839Z,5.10
2018-06-11T14:49:32.309Z,3.67
2018-06-11T14:51:58.761Z,8.27
2018-06-11T14:54:25.225Z,5.47
2018-06-11T14:56:51.695Z,5.67
2018-06-11T14:59:18.161Z,5.30
2018-06-11T15:01:44.656Z,3.50
2018-06-11T15:04:11.165Z,6.47
2018-06-11T15:06:37.666Z,5.12
2018-06-11T15:09:04.163Z,3.53
2018-06-11T15:11:30.633Z,12.13
2018-06-11T15:13:57.120Z,5.93
2018-06-11T15:16:23.616Z,7.33
2018-06-11T15:18:50.180Z,3.65
2018-06-11T15:21:16.660Z,4.07
2018-06-11T15:23:43.128Z,5.77
2018-06-11T15:26:09.619Z,9.27
2018-06-11T15:28:36.127Z,7.47
2018-06-11T15:31:02.624Z,4.78
2018-06-11T15:33:29.115Z,17.87
2018-06-11T15:35:55.667Z,3.67
2018-06-11T15:38:22.226Z,5.47
2018-06-11T15:40:48.744Z,10.32
2018-06-11T15:43:15.212Z,5.70
2018-06-11T15:45:41.734Z,9.93
2018-06-11T15:48:08.184Z,7.97
2018-06-11T15:50:34.698Z,7.37
2018-06-11T15:53:01.169Z,7.57
2018-06-11T15:55:27.649Z,13.10
2018-06-11T15:57:54.106Z,9.90
2018-06-11T16:00:20.608Z,5.20
2018-06-11T16:02:47.801Z,9.53
2018-06-11T16:05:14.313Z,8.87
2018-06-11T16:07:40.887Z,14.17
2018-06-11T16:10:07.414Z,12.20
2018-06-11T16:12:34.392Z,7.05
2018-06-11T16:15:00.994Z,16.67
2018-06-11T16:17:27.494Z,12.73
2018-06-11T16:19:53.988Z,11.40
2018-06-11T16:22:20.480Z,14.27
2018-06-11T16:24:46.932Z,13.50
2018-06-11T16:27:13.405Z,21.87
2018-06-11T16:29:39.881Z,17.93
2018-06-11T16:32:06.348Z,31.80
2018-06-11T16:34:32.838Z,21.20
2018-06-11T16:36:59.316Z,42.27
2018-06-11T16:39:25.757Z,36.20
2018-06-11T16:41:52.197Z,26.20
2018-06-11T16:44:18.670Z,17.55
2018-06-11T16:46:45.170Z,21.07
2018-06-11T16:49:11.631Z,13.70
2018-06-11T16:51:38.127Z,10.80
2018-06-11T16:54:04.588Z,8.50
2018-06-11T16:56:31.090Z,8.90
2018-06-11T16:58:57.593Z,5.13
2018-06-11T17:01:24.095Z,11.67
2018-06-11T17:03:50.595Z,11.53
2018-06-11T17:06:17.138Z,8.55
2018-06-11T17:08:43.570Z,11.30
2018-06-11T17:11:10.034Z,11.10
2018-06-11T17:13:37.013Z,12.50
2018-06-11T17:16:03.491Z,14.93
2018-06-11T17:18:29.981Z,26.55
2018-06-11T17:20:56.453Z,16.53
2018-06-11T17:23:22.923Z,15.27
2018-06-11T17:25:49.384Z,11.47
2018-06-11T17:28:15.831Z,13.78
2018-06-11T17:30:42.313Z,14.73
2018-06-11T17:33:08.769Z,20.30
2018-06-11T17:35:35.279Z,23.33
2018-06-11T17:38:01.780Z,18.87
2018-06-11T17:40:28.281Z,9.83
2018-06-11T17:42:54.783Z,6.93
2018-06-11T17:45:21.247Z,14.63
2018-06-11T17:47:47.735Z,10.47
2018-06-11T17:50:14.197Z,13.25
2018-06-11T17:52:40.705Z,13.10
2018-06-11T17:55:07.258Z,15.97
2018-06-11T17:57:33.865Z,9.70
2018-06-11T18:00:00.312Z,12.58
2018-06-11T18:02:26.823Z,8.33
2018-06-11T18:04:53.339Z,9.27
2018-06-11T18:07:19.835Z,10.07
2018-06-11T18:09:46.319Z,14.83
2018-06-11T18:12:12.849Z,13.57
2018-06-11T18:14:39.403Z,7.37
2018-06-11T18:17:05.855Z,10.23
2018-06-11T18:19:32.382Z,9.63
2018-06-11T18:21:58.915Z,8.88
2018-06-11T18:24:25.680Z,8.75
2018-06-11T18:26:52.168Z,8.60
2018-06-11T18:29:18.652Z,9.93
2018-06-11T18:31:45.181Z,14.57
2018-06-11T18:34:11.681Z,9.03
2018-06-11T18:36:38.199Z,10.38
2018-06-11T18:39:04.796Z,8.40
2018-06-11T18:41:31.314Z,7.37
2018-06-11T18:43:58.004Z,8.60
2018-06-11T18:46:24.558Z,8.48
2018-06-11T18:48:51.072Z,8.43
2018-06-11T18:51:17.538Z,5.97
2018-06-11T18:53:44.053Z,7.83
2018-06-11T18:56:10.543Z,8.13
2018-06-11T18:58:37.024Z,10.58
2018-06-11T19:01:03.492Z,6.30
2018-06-11T19:03:29.982Z,6.73
2018-06-11T19:05:56.457Z,7.73
2018-06-11T19:08:22.938Z,9.03
2018-06-11T19:10:49.404Z,6.55
2018-06-11T19:13:15.912Z,6.70
2018-06-11T19:15:42.434Z,7.60
2018-06-11T19:18:08.912Z,6.87
2018-06-11T19:20:35.914Z,9.83
2018-06-11T19:23:02.399Z,8.93
2018-06-11T19:25:28.883Z,10.27
2018-06-11T19:27:55.353Z,8.55
2018-06-11T19:30:21.829Z,5.67
2018-06-11T19:32:48.348Z,8.07
2018-06-11T19:35:14.882Z,8.53
2018-06-11T19:37:41.439Z,5.73
2018-06-11T19:40:07.938Z,10.82
2018-06-11T19:42:34.438Z,6.60
2018-06-11T19:45:00.953Z,8.20
2018-06-11T19:47:27.491Z,7.03
2018-06-11T19:50:04.176Z,15.10
2018-06-11T19:52:31.607Z,7.90
2018-06-11T19:54:58.620Z,11.73
2018-06-11T19:57:25.762Z,8.07
2018-06-11T19:59:52.853Z,5.97
2018-06-11T20:02:19.345Z,7.50
2018-06-11T20:04:45.908Z,5.77
2018-06-11T20:07:12.421Z,5.75
2018-06-11T20:09:39.031Z,6.58
2018-06-11T20:12:05.616Z,9.03
2018-06-11T20:14:32.146Z,7.67
2018-06-11T20:16:58.640Z,10.37
2018-06-11T20:19:25.136Z,7.70
2018-06-11T20:21:51.637Z,9.78
2018-06-11T20:24:18.102Z,9.10
2018-06-11T20:26:45.167Z,7.13
2018-06-11T20:29:11.602Z,4.53
2018-06-11T20:31:38.101Z,6.13
2018-06-11T20:34:04.632Z,5.37
2018-06-11T20:36:31.153Z,7.37
2018-06-11T20:38:57.690Z,6.62
2018-06-11T20:41:24.204Z,6.90
2018-06-11T20:43:50.714Z,5.93
2018-06-11T20:46:17.224Z,3.67
2018-06-11T20:48:43.705Z,6.10
2018-06-11T20:51:10.370Z,6.25
2018-06-11T20:53:36.943Z,3.93
2018-06-11T20:56:03.442Z,6.33
2018-06-11T20:58:29.914Z,6.40
2018-06-11T21:00:56.401Z,10.40
2018-06-11T21:03:22.947Z,5.13
2018-06-11T21:05:49.408Z,7.20
2018-06-11T21:08:15.948Z,12.50
2018-06-11T21:10:42.443Z,4.92
2018-06-11T21:13:08.932Z,4.43
2018-06-11T21:15:35.420Z,7.00
2018-06-11T21:18:01.870Z,5.90
2018-06-11T21:20:28.342Z,13.32
2018-06-11T21:22:55.099Z,9.50
2018-06-11T21:25:21.598Z,7.65
2018-06-11T21:27:48.087Z,14.60
2018-06-11T21:30:15.185Z,8.53
2018-06-11T21:32:41.694Z,10.08
2018-06-11T21:35:08.312Z,7.97
2018-06-11T21:37:34.795Z,10.27
2018-06-11T21:40:01.309Z,4.30
2018-06-11T21:42:28.420Z,14.23
2018-06-11T21:44:54.947Z,8.10
2018-06-11T21:47:21.408Z,8.03
2018-06-11T21:49:47.949Z,8.20
2018-06-11T21:52:14.688Z,5.87
2018-06-11T21:54:41.181Z,4.37
2018-06-11T21:57:07.631Z,5.40
2018-06-11T21:59:34.105Z,9.18
2018-06-11T22:02:00.575Z,7.77
2018-06-11T22:04:27.045Z,7.17
2018-06-11T22:06:53.561Z,8.73
2018-06-11T22:09:20.049Z,10.28
2018-06-11T22:11:46.540Z,4.60
2018-06-11T22:14:13.030Z,5.10
2018-06-11T22:16:39.491Z,7.23
2018-06-11T22:19:05.949Z,3.47
2018-06-11T22:21:32.454Z,3.75
2018-06-11T22:23:58.979Z,4.03
2018-06-11T22:26:25.460Z,4.87
2018-06-11T22:28:51.942Z,5.70
2018-06-11T22:31:18.426Z,5.97
2018-06-11T22:33:44.866Z,5.57
2018-06-11T22:36:11.336Z,4.07
2018-06-11T22:38:37.857Z,6.67
2018-06-11T22:41:04.389Z,5.13
2018-06-11T22:43:30.858Z,6.07
2018-06-11T22:45:57.340Z,8.33
2018-06-11T22:48:23.810Z,8.10
2018-06-11T22:50:50.298Z,6.27
2018-06-11T22:53:16.787Z,5.80
2018-06-11T22:55:43.236Z,7.50
2018-06-11T22:58:09.762Z,4.27
2018-06-11T23:00:36.278Z,6.65
2018-06-11T23:03:02.794Z,5.60
2018-06-11T23:05:29.271Z,8.33
2018-06-11T23:07:55.712Z,4.63
2018-06-11T23:10:22.248Z,3.80
2018-06-11T23:12:48.766Z,7.12
2018-06-11T23:15:15.230Z,5.20
2018-06-11T23:17:41.708Z,5.80
2018-06-11T23:20:08.202Z,3.58
2018-06-11T23:22:34.898Z,6.87
2018-06-11T23:25:01.394Z,3.13
2018-06-11T23:27:27.892Z,3.97
2018-06-11T23:29:54.382Z,6.83
2018-06-11T23:32:20.941Z,10.25
2018-06-11T23:34:47.449Z,4.40
2018-06-11T23:37:13.932Z,7.03
2018-06-11T23:39:40.398Z,6.20
2018-06-11T23:42:06.951Z,6.13
2018-06-11T23:44:33.416Z,6.10
2018-06-11T23:46:59.932Z,7.30
2018-06-11T23:49:26.411Z,3.83
2018-06-11T23:51:52.861Z,6.73
2018-06-11T23:54:19.341Z,4.77
2018-06-11T23:56:45.796Z,7.83
2018-06-11T23:59:12.269Z,5.87
